sensor_id;sensor_type;location;lat;lon;timestamp;temperature;humidity
67354;SHT30;54238;52.278;21.056;2023-04-24T00:00:08;15.51;44.06
67354;SHT30;54238;52.278;21.056;2023-04-24T00:03:00;15.47;44.23
67354;SHT30;54238;52.278;21.056;2023-04-24T00:05:31;15.46;44.27
67354;SHT30;54238;52.278;21.056;2023-04-24T00:08:03;15.44;44.39
67354;SHT30;54238;52.278;21.056;2023-04-24T00:10:30;15.42;44.55
67354;SHT30;54238;52.278;21.056;2023-04-24T00:13:00;15.40;44.68
67354;SHT30;54238;52.278;21.056;2023-04-24T00:18:08;15.35;44.86
67354;SHT30;54238;52.278;21.056;2023-04-24T00:23:41;15.26;45.04
67354;SHT30;54238;52.278;21.056;2023-04-24T00:26:11;15.23;45.19
67354;SHT30;54238;52.278;21.056;2023-04-24T00:28:40;15.21;45.48
67354;SHT30;54238;52.278;21.056;2023-04-24T00:31:17;15.19;45.49
67354;SHT30;54238;52.278;21.056;2023-04-24T00:33:48;15.16;45.68
67354;SHT30;54238;52.278;21.056;2023-04-24T00:36:20;15.14;45.74
67354;SHT30;54238;52.278;21.056;2023-04-24T00:38:47;15.10;45.78
67354;SHT30;54238;52.278;21.056;2023-04-24T00:41:31;15.09;45.88
67354;SHT30;54238;52.278;21.056;2023-04-24T00:43:58;15.07;45.92
67354;SHT30;54238;52.278;21.056;2023-04-24T00:49:21;15.04;45.95
67354;SHT30;54238;52.278;21.056;2023-04-24T00:51:48;15.02;45.91
67354;SHT30;54238;52.278;21.056;2023-04-24T00:54:18;15.02;45.87
67354;SHT30;54238;52.278;21.056;2023-04-24T00:56:45;15.00;45.85
67354;SHT30;54238;52.278;21.056;2023-04-24T00:59:18;14.98;45.86
67354;SHT30;54238;52.278;21.056;2023-04-24T01:01:50;14.95;45.91
67354;SHT30;54238;52.278;21.056;2023-04-24T01:04:18;14.94;45.88
67354;SHT30;54238;52.278;21.056;2023-04-24T01:06:48;14.92;45.87
67354;SHT30;54238;52.278;21.056;2023-04-24T01:09:17;14.92;45.89
67354;SHT30;54238;52.278;21.056;2023-04-24T01:11:49;14.92;46.09
67354;SHT30;54238;52.278;21.056;2023-04-24T01:14:19;14.91;46.22
67354;SHT30;54238;52.278;21.056;2023-04-24T01:16:49;14.89;46.43
67354;SHT30;54238;52.278;21.056;2023-04-24T01:19:18;14.89;46.38
67354;SHT30;54238;52.278;21.056;2023-04-24T01:21:50;14.86;46.45
67354;SHT30;54238;52.278;21.056;2023-04-24T01:24:28;14.85;46.58
67354;SHT30;54238;52.278;21.056;2023-04-24T01:26:57;14.83;46.76
67354;SHT30;54238;52.278;21.056;2023-04-24T01:29:24;14.82;46.83
67354;SHT30;54238;52.278;21.056;2023-04-24T01:31:52;14.79;46.97
67354;SHT30;54238;52.278;21.056;2023-04-24T01:34:20;14.77;47.13
67354;SHT30;54238;52.278;21.056;2023-04-24T01:36:47;14.73;47.21
67354;SHT30;54238;52.278;21.056;2023-04-24T01:39:18;14.68;47.29
67354;SHT30;54238;52.278;21.056;2023-04-24T01:41:47;14.64;47.40
67354;SHT30;54238;52.278;21.056;2023-04-24T01:44:17;14.62;47.66
67354;SHT30;54238;52.278;21.056;2023-04-24T01:46:47;14.57;47.77
67354;SHT30;54238;52.278;21.056;2023-04-24T01:49:17;14.54;47.90
67354;SHT30;54238;52.278;21.056;2023-04-24T01:51:49;14.50;47.90
67354;SHT30;54238;52.278;21.056;2023-04-24T01:54:16;14.47;47.95
67354;SHT30;54238;52.278;21.056;2023-04-24T01:56:43;14.44;48.00
67354;SHT30;54238;52.278;21.056;2023-04-24T01:59:13;14.40;48.06
67354;SHT30;54238;52.278;21.056;2023-04-24T02:01:44;14.35;48.24
67354;SHT30;54238;52.278;21.056;2023-04-24T02:04:16;14.30;48.46
67354;SHT30;54238;52.278;21.056;2023-04-24T02:06:48;14.25;48.45
67354;SHT30;54238;52.278;21.056;2023-04-24T02:09:15;14.22;48.61
67354;SHT30;54238;52.278;21.056;2023-04-24T02:11:45;14.17;48.73
67354;SHT30;54238;52.278;21.056;2023-04-24T02:14:31;14.17;48.56
67354;SHT30;54238;52.278;21.056;2023-04-24T02:17:09;14.15;48.61
67354;SHT30;54238;52.278;21.056;2023-04-24T02:19:42;14.11;48.74
67354;SHT30;54238;52.278;21.056;2023-04-24T02:22:10;14.08;48.82
67354;SHT30;54238;52.278;21.056;2023-04-24T02:24:39;14.03;48.85
67354;SHT30;54238;52.278;21.056;2023-04-24T02:27:11;14.00;48.84
67354;SHT30;54238;52.278;21.056;2023-04-24T02:29:41;13.97;48.95
67354;SHT30;54238;52.278;21.056;2023-04-24T02:32:15;13.96;48.95
67354;SHT30;54238;52.278;21.056;2023-04-24T02:35:00;13.95;48.92
67354;SHT30;54238;52.278;21.056;2023-04-24T02:37:27;13.94;48.90
67354;SHT30;54238;52.278;21.056;2023-04-24T02:39:56;13.93;48.97
67354;SHT30;54238;52.278;21.056;2023-04-24T02:42:24;13.90;49.05
67354;SHT30;54238;52.278;21.056;2023-04-24T02:44:53;13.90;49.08
67354;SHT30;54238;52.278;21.056;2023-04-24T02:47:22;13.89;49.19
67354;SHT30;54238;52.278;21.056;2023-04-24T02:49:56;13.84;49.26
67354;SHT30;54238;52.278;21.056;2023-04-24T02:52:26;13.81;49.24
67354;SHT30;54238;52.278;21.056;2023-04-24T02:54:55;13.77;49.28
67354;SHT30;54238;52.278;21.056;2023-04-24T02:57:24;13.75;49.31
67354;SHT30;54238;52.278;21.056;2023-04-24T02:59:52;13.76;49.39
67354;SHT30;54238;52.278;21.056;2023-04-24T03:02:19;13.76;49.38
67354;SHT30;54238;52.278;21.056;2023-04-24T03:04:51;13.74;49.49
67354;SHT30;54238;52.278;21.056;2023-04-24T03:07:21;13.74;49.59
67354;SHT30;54238;52.278;21.056;2023-04-24T03:09:51;13.73;49.67
67354;SHT30;54238;52.278;21.056;2023-04-24T03:12:18;13.69;49.77
67354;SHT30;54238;52.278;21.056;2023-04-24T03:14:50;13.68;49.91
67354;SHT30;54238;52.278;21.056;2023-04-24T03:17:21;13.64;49.96
67354;SHT30;54238;52.278;21.056;2023-04-24T03:19:51;13.62;50.14
67354;SHT30;54238;52.278;21.056;2023-04-24T03:22:20;13.59;50.20
67354;SHT30;54238;52.278;21.056;2023-04-24T03:24:50;13.55;50.35
67354;SHT30;54238;52.278;21.056;2023-04-24T03:27:22;13.55;50.42
67354;SHT30;54238;52.278;21.056;2023-04-24T03:29:49;13.54;50.55
67354;SHT30;54238;52.278;21.056;2023-04-24T03:32:24;13.54;50.57
67354;SHT30;54238;52.278;21.056;2023-04-24T03:34:54;13.54;50.70
67354;SHT30;54238;52.278;21.056;2023-04-24T03:37:21;13.53;50.73
67354;SHT30;54238;52.278;21.056;2023-04-24T03:39:48;13.53;50.82
67354;SHT30;54238;52.278;21.056;2023-04-24T03:42:16;13.50;50.83
67354;SHT30;54238;52.278;21.056;2023-04-24T03:44:43;13.50;50.93
67354;SHT30;54238;52.278;21.056;2023-04-24T03:47:15;13.50;51.08
67354;SHT30;54238;52.278;21.056;2023-04-24T03:49:43;13.52;51.10
67354;SHT30;54238;52.278;21.056;2023-04-24T03:52:12;13.53;51.15
67354;SHT30;54238;52.278;21.056;2023-04-24T03:54:39;13.54;51.28
67354;SHT30;54238;52.278;21.056;2023-04-24T03:57:06;13.53;51.32
67354;SHT30;54238;52.278;21.056;2023-04-24T03:59:36;13.52;51.43
67354;SHT30;54238;52.278;21.056;2023-04-24T04:02:08;13.50;51.54
67354;SHT30;54238;52.278;21.056;2023-04-24T04:04:35;13.48;51.65
67354;SHT30;54238;52.278;21.056;2023-04-24T04:07:04;13.46;51.77
67354;SHT30;54238;52.278;21.056;2023-04-24T04:09:34;13.43;51.94
67354;SHT30;54238;52.278;21.056;2023-04-24T04:12:04;13.43;51.93
67354;SHT30;54238;52.278;21.056;2023-04-24T04:14:38;13.42;52.07
67354;SHT30;54238;52.278;21.056;2023-04-24T04:17:08;13.40;52.02
67354;SHT30;54238;52.278;21.056;2023-04-24T04:19:37;13.37;52.14
67354;SHT30;54238;52.278;21.056;2023-04-24T04:22:04;13.37;52.25
67354;SHT30;54238;52.278;21.056;2023-04-24T04:24:31;13.36;52.34
67354;SHT30;54238;52.278;21.056;2023-04-24T04:27:01;13.38;52.33
67354;SHT30;54238;52.278;21.056;2023-04-24T04:29:31;13.40;52.35
67354;SHT30;54238;52.278;21.056;2023-04-24T04:31:59;13.44;52.25
67354;SHT30;54238;52.278;21.056;2023-04-24T04:34:31;13.43;52.39
67354;SHT30;54238;52.278;21.056;2023-04-24T04:37:03;13.42;52.49
67354;SHT30;54238;52.278;21.056;2023-04-24T04:39:35;13.41;52.55
67354;SHT30;54238;52.278;21.056;2023-04-24T04:42:09;13.41;52.50
67354;SHT30;54238;52.278;21.056;2023-04-24T04:44:37;13.42;52.59
67354;SHT30;54238;52.278;21.056;2023-04-24T04:47:05;13.46;52.51
67354;SHT30;54238;52.278;21.056;2023-04-24T04:49:32;13.48;52.61
67354;SHT30;54238;52.278;21.056;2023-04-24T04:51:59;13.50;52.60
67354;SHT30;54238;52.278;21.056;2023-04-24T04:54:33;13.53;52.65
67354;SHT30;54238;52.278;21.056;2023-04-24T04:57:07;13.52;52.71
67354;SHT30;54238;52.278;21.056;2023-04-24T04:59:35;13.53;52.68
67354;SHT30;54238;52.278;21.056;2023-04-24T05:02:06;13.55;52.73
67354;SHT30;54238;52.278;21.056;2023-04-24T05:04:35;13.58;52.74
67354;SHT30;54238;52.278;21.056;2023-04-24T05:07:03;13.61;52.79
67354;SHT30;54238;52.278;21.056;2023-04-24T05:09:32;13.64;52.70
67354;SHT30;54238;52.278;21.056;2023-04-24T05:12:00;13.69;52.69
67354;SHT30;54238;52.278;21.056;2023-04-24T05:14:32;13.73;52.58
67354;SHT30;54238;52.278;21.056;2023-04-24T05:17:02;13.76;52.51
67354;SHT30;54238;52.278;21.056;2023-04-24T05:19:29;13.82;52.37
67354;SHT30;54238;52.278;21.056;2023-04-24T05:22:00;13.89;52.32
67354;SHT30;54238;52.278;21.056;2023-04-24T05:24:30;13.96;52.27
67354;SHT30;54238;52.278;21.056;2023-04-24T05:27:03;14.03;52.08
67354;SHT30;54238;52.278;21.056;2023-04-24T05:29:33;14.14;51.98
67354;SHT30;54238;52.278;21.056;2023-04-24T05:32:00;14.26;51.79
67354;SHT30;54238;52.278;21.056;2023-04-24T05:34:30;14.38;51.62
67354;SHT30;54238;52.278;21.056;2023-04-24T05:36:58;14.50;51.46
67354;SHT30;54238;52.278;21.056;2023-04-24T05:39:25;14.63;51.32
67354;SHT30;54238;52.278;21.056;2023-04-24T05:41:54;14.74;51.38
67354;SHT30;54238;52.278;21.056;2023-04-24T05:44:27;14.82;51.33
67354;SHT30;54238;52.278;21.056;2023-04-24T05:46:59;14.92;50.88
67354;SHT30;54238;52.278;21.056;2023-04-24T05:49:26;15.05;50.43
67354;SHT30;54238;52.278;21.056;2023-04-24T05:51:57;15.19;50.03
67354;SHT30;54238;52.278;21.056;2023-04-24T05:54:29;15.32;49.89
67354;SHT30;54238;52.278;21.056;2023-04-24T05:56:56;15.48;49.58
67354;SHT30;54238;52.278;21.056;2023-04-24T05:59:23;15.62;49.34
67354;SHT30;54238;52.278;21.056;2023-04-24T06:01:53;15.75;48.93
67354;SHT30;54238;52.278;21.056;2023-04-24T06:04:20;15.86;48.93
67354;SHT30;54238;52.278;21.056;2023-04-24T06:06:52;16.00;48.62
67354;SHT30;54238;52.278;21.056;2023-04-24T06:09:22;16.10;48.47
67354;SHT30;54238;52.278;21.056;2023-04-24T06:11:52;16.20;48.55
67354;SHT30;54238;52.278;21.056;2023-04-24T06:14:20;16.29;48.45
67354;SHT30;54238;52.278;21.056;2023-04-24T06:16:49;16.39;47.98
67354;SHT30;54238;52.278;21.056;2023-04-24T06:19:16;16.44;47.76
67354;SHT30;54238;52.278;21.056;2023-04-24T06:21:48;16.48;47.85
67354;SHT30;54238;52.278;21.056;2023-04-24T06:24:15;16.54;47.77
67354;SHT30;54238;52.278;21.056;2023-04-24T06:29:26;16.73;47.07
67354;SHT30;54238;52.278;21.056;2023-04-24T06:31:56;16.82;47.14
67354;SHT30;54238;52.278;21.056;2023-04-24T06:34:28;16.92;47.08
67354;SHT30;54238;52.278;21.056;2023-04-24T06:37:02;17.04;47.14
67354;SHT30;54238;52.278;21.056;2023-04-24T06:39:33;17.16;47.39
67354;SHT30;54238;52.278;21.056;2023-04-24T06:42:03;17.27;47.30
67354;SHT30;54238;52.278;21.056;2023-04-24T06:44:35;17.35;47.01
67354;SHT30;54238;52.278;21.056;2023-04-24T06:47:10;17.47;46.51
67354;SHT30;54238;52.278;21.056;2023-04-24T06:49:41;17.59;46.17
67354;SHT30;54238;52.278;21.056;2023-04-24T06:52:09;17.68;45.91
67354;SHT30;54238;52.278;21.056;2023-04-24T06:54:36;17.81;45.81
67354;SHT30;54238;52.278;21.056;2023-04-24T06:57:06;17.93;45.75
67354;SHT30;54238;52.278;21.056;2023-04-24T06:59:37;18.03;45.55
67354;SHT30;54238;52.278;21.056;2023-04-24T07:02:04;18.12;45.11
67354;SHT30;54238;52.278;21.056;2023-04-24T07:04:32;18.26;45.02
67354;SHT30;54238;52.278;21.056;2023-04-24T07:07:02;18.38;44.86
67354;SHT30;54238;52.278;21.056;2023-04-24T07:09:31;18.52;44.71
67354;SHT30;54238;52.278;21.056;2023-04-24T07:11:59;18.65;44.90
67354;SHT30;54238;52.278;21.056;2023-04-24T07:14:30;18.80;44.46
67354;SHT30;54238;52.278;21.056;2023-04-24T07:17:07;18.95;43.59
67354;SHT30;54238;52.278;21.056;2023-04-24T07:19:36;19.14;43.69
67354;SHT30;54238;52.278;21.056;2023-04-24T07:22:03;19.33;43.78
67354;SHT30;54238;52.278;21.056;2023-04-24T07:24:33;19.48;43.22
67354;SHT30;54238;52.278;21.056;2023-04-24T07:27:00;19.64;43.20
67354;SHT30;54238;52.278;21.056;2023-04-24T07:29:30;19.78;42.80
67354;SHT30;54238;52.278;21.056;2023-04-24T07:31:57;19.89;42.11
67354;SHT30;54238;52.278;21.056;2023-04-24T07:34:26;20.03;41.44
67354;SHT30;54238;52.278;21.056;2023-04-24T07:36:56;20.14;41.34
67354;SHT30;54238;52.278;21.056;2023-04-24T07:39:23;20.31;40.86
67354;SHT30;54238;52.278;21.056;2023-04-24T07:41:56;20.50;40.26
67354;SHT30;54238;52.278;21.056;2023-04-24T07:44:28;20.65;40.23
67354;SHT30;54238;52.278;21.056;2023-04-24T07:47:02;20.76;40.65
67354;SHT30;54238;52.278;21.056;2023-04-24T07:49:31;20.94;40.26
67354;SHT30;54238;52.278;21.056;2023-04-24T07:52:03;21.14;39.72
67354;SHT30;54238;52.278;21.056;2023-04-24T07:54:30;21.29;40.16
67354;SHT30;54238;52.278;21.056;2023-04-24T07:56:57;21.41;40.01
67354;SHT30;54238;52.278;21.056;2023-04-24T07:59:27;21.46;39.01
67354;SHT30;54238;52.278;21.056;2023-04-24T08:01:56;21.57;38.59
67354;SHT30;54238;52.278;21.056;2023-04-24T08:04:23;21.63;38.18
67354;SHT30;54238;52.278;21.056;2023-04-24T08:07:00;21.69;37.62
67354;SHT30;54238;52.278;21.056;2023-04-24T08:09:36;21.80;37.50
67354;SHT30;54238;52.278;21.056;2023-04-24T08:12:05;21.94;36.44
67354;SHT30;54238;52.278;21.056;2023-04-24T08:14:35;22.11;35.96
67354;SHT30;54238;52.278;21.056;2023-04-24T08:17:04;22.23;35.81
67354;SHT30;54238;52.278;21.056;2023-04-24T08:19:36;22.36;35.57
67354;SHT30;54238;52.278;21.056;2023-04-24T08:22:05;22.51;35.59
67354;SHT30;54238;52.278;21.056;2023-04-24T08:24:36;22.70;35.57
67354;SHT30;54238;52.278;21.056;2023-04-24T08:27:05;22.92;35.31
67354;SHT30;54238;52.278;21.056;2023-04-24T08:29:38;23.13;35.19
67354;SHT30;54238;52.278;21.056;2023-04-24T08:32:07;23.20;34.79
67354;SHT30;54238;52.278;21.056;2023-04-24T08:34:40;23.17;34.35
67354;SHT30;54238;52.278;21.056;2023-04-24T08:37:07;23.10;34.44
67354;SHT30;54238;52.278;21.056;2023-04-24T08:39:40;23.07;34.61
67354;SHT30;54238;52.278;21.056;2023-04-24T08:42:07;23.05;34.53
67354;SHT30;54238;52.278;21.056;2023-04-24T08:44:42;23.01;34.17
67354;SHT30;54238;52.278;21.056;2023-04-24T08:47:13;23.01;35.02
67354;SHT30;54238;52.278;21.056;2023-04-24T08:49:44;23.07;35.53
67354;SHT30;54238;52.278;21.056;2023-04-24T08:52:19;23.19;35.44
67354;SHT30;54238;52.278;21.056;2023-04-24T08:54:49;23.17;35.62
67354;SHT30;54238;52.278;21.056;2023-04-24T08:57:19;23.14;35.49
67354;SHT30;54238;52.278;21.056;2023-04-24T08:59:49;23.06;35.34
67354;SHT30;54238;52.278;21.056;2023-04-24T09:02:19;23.04;35.65
67354;SHT30;54238;52.278;21.056;2023-04-24T09:04:51;23.11;35.56
67354;SHT30;54238;52.278;21.056;2023-04-24T09:07:24;23.14;34.63
67354;SHT30;54238;52.278;21.056;2023-04-24T09:09:56;23.15;34.77
67354;SHT30;54238;52.278;21.056;2023-04-24T09:12:29;23.15;35.01
67354;SHT30;54238;52.278;21.056;2023-04-24T09:14:58;23.27;35.22
67354;SHT30;54238;52.278;21.056;2023-04-24T09:17:30;23.44;35.08
67354;SHT30;54238;52.278;21.056;2023-04-24T09:20:02;23.56;34.45
67354;SHT30;54238;52.278;21.056;2023-04-24T09:22:30;23.70;34.18
67354;SHT30;54238;52.278;21.056;2023-04-24T09:25:04;23.97;33.70
67354;SHT30;54238;52.278;21.056;2023-04-24T09:27:42;24.30;32.57
67354;SHT30;54238;52.278;21.056;2023-04-24T09:30:11;24.41;32.70
67354;SHT30;54238;52.278;21.056;2023-04-24T09:32:43;24.51;32.22
67354;SHT30;54238;52.278;21.056;2023-04-24T09:35:13;24.57;31.60
67354;SHT30;54238;52.278;21.056;2023-04-24T09:37:46;24.52;31.85
67354;SHT30;54238;52.278;21.056;2023-04-24T09:40:17;24.47;31.63
67354;SHT30;54238;52.278;21.056;2023-04-24T09:42:51;24.45;31.47
67354;SHT30;54238;52.278;21.056;2023-04-24T09:45:22;24.51;31.65
67354;SHT30;54238;52.278;21.056;2023-04-24T09:47:57;24.76;31.49
67354;SHT30;54238;52.278;21.056;2023-04-24T09:50:24;25.17;32.14
67354;SHT30;54238;52.278;21.056;2023-04-24T09:52:57;25.60;31.17
67354;SHT30;54238;52.278;21.056;2023-04-24T09:55:29;26.08;30.53
67354;SHT30;54238;52.278;21.056;2023-04-24T09:58:00;26.49;30.02
67354;SHT30;54238;52.278;21.056;2023-04-24T10:01:59;27.10;28.57
67354;SHT30;54238;52.278;21.056;2023-04-24T10:04:31;27.45;28.68
67354;SHT30;54238;52.278;21.056;2023-04-24T10:07:03;27.84;28.11
67354;SHT30;54238;52.278;21.056;2023-04-24T10:09:34;28.17;27.16
67354;SHT30;54238;52.278;21.056;2023-04-24T10:12:04;28.53;26.54
67354;SHT30;54238;52.278;21.056;2023-04-24T10:14:34;28.89;26.80
67354;SHT30;54238;52.278;21.056;2023-04-24T10:17:01;29.26;26.61
67354;SHT30;54238;52.278;21.056;2023-04-24T10:19:41;29.58;26.73
67354;SHT30;54238;52.278;21.056;2023-04-24T10:22:10;29.92;25.44
67354;SHT30;54238;52.278;21.056;2023-04-24T10:24:40;30.20;24.73
67354;SHT30;54238;52.278;21.056;2023-04-24T10:27:10;30.41;24.39
67354;SHT30;54238;52.278;21.056;2023-04-24T10:29:43;30.58;24.31
67354;SHT30;54238;52.278;21.056;2023-04-24T10:32:14;30.69;24.14
67354;SHT30;54238;52.278;21.056;2023-04-24T10:34:45;30.84;23.88
67354;SHT30;54238;52.278;21.056;2023-04-24T10:37:17;31.03;23.74
67354;SHT30;54238;52.278;21.056;2023-04-24T10:40:05;31.29;23.83
67354;SHT30;54238;52.278;21.056;2023-04-24T10:42:40;31.57;23.60
67354;SHT30;54238;52.278;21.056;2023-04-24T10:45:16;31.62;23.95
67354;SHT30;54238;52.278;21.056;2023-04-24T10:47:52;31.80;23.15
67354;SHT30;54238;52.278;21.056;2023-04-24T10:50:26;31.97;22.50
67354;SHT30;54238;52.278;21.056;2023-04-24T10:53:19;32.03;22.14
67354;SHT30;54238;52.278;21.056;2023-04-24T10:56:04;32.12;21.95
67354;SHT30;54238;52.278;21.056;2023-04-24T10:58:43;32.22;21.62
67354;SHT30;54238;52.278;21.056;2023-04-24T11:01:33;32.48;20.51
67354;SHT30;54238;52.278;21.056;2023-04-24T11:04:07;32.68;19.84
67354;SHT30;54238;52.278;21.056;2023-04-24T11:06:37;32.82;19.46
67354;SHT30;54238;52.278;21.056;2023-04-24T11:09:08;32.74;19.27
67354;SHT30;54238;52.278;21.056;2023-04-24T11:11:46;32.71;18.91
67354;SHT30;54238;52.278;21.056;2023-04-24T11:14:16;32.74;18.77
67354;SHT30;54238;52.278;21.056;2023-04-24T11:19:24;33.09;19.64
67354;SHT30;54238;52.278;21.056;2023-04-24T11:21:56;33.08;19.80
67354;SHT30;54238;52.278;21.056;2023-04-24T11:24:32;33.19;19.90
67354;SHT30;54238;52.278;21.056;2023-04-24T11:27:07;33.39;19.05
67354;SHT30;54238;52.278;21.056;2023-04-24T11:29:49;33.53;18.43
67354;SHT30;54238;52.278;21.056;2023-04-24T11:35:26;33.30;18.20
67354;SHT30;54238;52.278;21.056;2023-04-24T11:37:56;33.21;18.65
67354;SHT30;54238;52.278;21.056;2023-04-24T11:40:29;33.19;19.09
67354;SHT30;54238;52.278;21.056;2023-04-24T11:42:59;33.27;18.78
67354;SHT30;54238;52.278;21.056;2023-04-24T11:45:30;33.36;19.05
67354;SHT30;54238;52.278;21.056;2023-04-24T11:51:05;33.55;18.49
67354;SHT30;54238;52.278;21.056;2023-04-24T11:53:32;33.57;18.67
67354;SHT30;54238;52.278;21.056;2023-04-24T11:56:02;33.79;18.48
67354;SHT30;54238;52.278;21.056;2023-04-24T11:58:35;34.10;18.74
67354;SHT30;54238;52.278;21.056;2023-04-24T12:01:07;34.45;18.61
67354;SHT30;54238;52.278;21.056;2023-04-24T12:03:37;34.54;17.56
67354;SHT30;54238;52.278;21.056;2023-04-24T12:06:08;34.55;18.06
67354;SHT30;54238;52.278;21.056;2023-04-24T12:08:40;34.56;17.82
67354;SHT30;54238;52.278;21.056;2023-04-24T12:11:07;34.50;17.90
67354;SHT30;54238;52.278;21.056;2023-04-24T12:13:39;34.55;16.85
67354;SHT30;54238;52.278;21.056;2023-04-24T12:16:07;34.58;17.00
67354;SHT30;54238;52.278;21.056;2023-04-24T12:18:40;34.55;17.26
67354;SHT30;54238;52.278;21.056;2023-04-24T12:21:22;34.52;17.07
67354;SHT30;54238;52.278;21.056;2023-04-24T12:23:56;34.57;17.05
67354;SHT30;54238;52.278;21.056;2023-04-24T12:26:26;34.67;16.43
67354;SHT30;54238;52.278;21.056;2023-04-24T12:28:54;34.64;16.56
67354;SHT30;54238;52.278;21.056;2023-04-24T12:31:26;34.61;16.54
67354;SHT30;54238;52.278;21.056;2023-04-24T12:33:55;34.62;16.33
67354;SHT30;54238;52.278;21.056;2023-04-24T12:36:23;34.64;16.23
67354;SHT30;54238;52.278;21.056;2023-04-24T12:38:55;34.61;16.82
67354;SHT30;54238;52.278;21.056;2023-04-24T12:41:22;34.84;17.00
67354;SHT30;54238;52.278;21.056;2023-04-24T12:43:52;35.08;17.34
67354;SHT30;54238;52.278;21.056;2023-04-24T12:46:23;35.15;16.65
67354;SHT30;54238;52.278;21.056;2023-04-24T12:48:53;35.22;16.64
67354;SHT30;54238;52.278;21.056;2023-04-24T12:51:20;35.30;17.31
67354;SHT30;54238;52.278;21.056;2023-04-24T12:53:47;35.26;16.50
67354;SHT30;54238;52.278;21.056;2023-04-24T12:56:16;35.13;16.99
67354;SHT30;54238;52.278;21.056;2023-04-24T12:58:46;34.87;17.40
67354;SHT30;54238;52.278;21.056;2023-04-24T13:01:13;33.98;18.75
67354;SHT30;54238;52.278;21.056;2023-04-24T13:03:43;33.25;19.45
67354;SHT30;54238;52.278;21.056;2023-04-24T13:06:10;32.71;20.15
67354;SHT30;54238;52.278;21.056;2023-04-24T13:08:41;32.11;20.75
67354;SHT30;54238;52.278;21.056;2023-04-24T13:11:11;31.46;21.33
67354;SHT30;54238;52.278;21.056;2023-04-24T13:13:38;31.04;21.61
67354;SHT30;54238;52.278;21.056;2023-04-24T13:16:06;30.66;22.04
67354;SHT30;54238;52.278;21.056;2023-04-24T13:18:34;30.46;22.20
67354;SHT30;54238;52.278;21.056;2023-04-24T13:21:03;30.28;22.30
67354;SHT30;54238;52.278;21.056;2023-04-24T13:23:36;30.15;22.53
67354;SHT30;54238;52.278;21.056;2023-04-24T13:26:08;29.99;22.75
67354;SHT30;54238;52.278;21.056;2023-04-24T13:28:36;29.96;22.67
67354;SHT30;54238;52.278;21.056;2023-04-24T13:31:04;30.05;22.52
67354;SHT30;54238;52.278;21.056;2023-04-24T13:34:07;30.43;22.08
67354;SHT30;54238;52.278;21.056;2023-04-24T13:36:38;30.67;21.76
67354;SHT30;54238;52.278;21.056;2023-04-24T13:39:11;30.97;21.66
67354;SHT30;54238;52.278;21.056;2023-04-24T13:41:58;31.27;21.15
67354;SHT30;54238;52.278;21.056;2023-04-24T13:44:28;31.27;21.33
67354;SHT30;54238;52.278;21.056;2023-04-24T13:47:00;30.75;21.10
67354;SHT30;54238;52.278;21.056;2023-04-24T13:49:28;29.86;22.23
67354;SHT30;54238;52.278;21.056;2023-04-24T13:51:59;29.75;21.98
67354;SHT30;54238;52.278;21.056;2023-04-24T13:54:32;29.40;22.44
67354;SHT30;54238;52.278;21.056;2023-04-24T13:57:02;29.15;23.38
67354;SHT30;54238;52.278;21.056;2023-04-24T13:59:32;29.50;22.90
67354;SHT30;54238;52.278;21.056;2023-04-24T14:02:04;29.94;22.38
67354;SHT30;54238;52.278;21.056;2023-04-24T14:04:34;30.24;21.66
67354;SHT30;54238;52.278;21.056;2023-04-24T14:07:04;29.92;21.67
67354;SHT30;54238;52.278;21.056;2023-04-24T14:09:34;29.14;21.91
67354;SHT30;54238;52.278;21.056;2023-04-24T14:12:04;28.33;23.17
67354;SHT30;54238;52.278;21.056;2023-04-24T14:14:32;27.74;23.65
67354;SHT30;54238;52.278;21.056;2023-04-24T14:17:02;27.39;24.41
67354;SHT30;54238;52.278;21.056;2023-04-24T14:19:29;27.11;24.60
67354;SHT30;54238;52.278;21.056;2023-04-24T14:21:56;26.94;25.00
67354;SHT30;54238;52.278;21.056;2023-04-24T14:24:24;27.09;25.37
67354;SHT30;54238;52.278;21.056;2023-04-24T14:26:54;27.22;25.32
67354;SHT30;54238;52.278;21.056;2023-04-24T14:29:25;27.45;25.55
67354;SHT30;54238;52.278;21.056;2023-04-24T14:32:00;27.51;25.88
67354;SHT30;54238;52.278;21.056;2023-04-24T14:34:27;27.50;25.82
67354;SHT30;54238;52.278;21.056;2023-04-24T14:36:54;27.48;25.50
67354;SHT30;54238;52.278;21.056;2023-04-24T14:39:24;27.52;25.55
67354;SHT30;54238;52.278;21.056;2023-04-24T14:41:57;28.01;25.30
67354;SHT30;54238;52.278;21.056;2023-04-24T14:44:24;28.73;24.95
67354;SHT30;54238;52.278;21.056;2023-04-24T14:46:51;29.25;23.73
67354;SHT30;54238;52.278;21.056;2023-04-24T14:49:20;29.33;22.11
67354;SHT30;54238;52.278;21.056;2023-04-24T14:51:50;29.20;21.66
67354;SHT30;54238;52.278;21.056;2023-04-24T14:54:20;28.90;21.50
67354;SHT30;54238;52.278;21.056;2023-04-24T14:56:52;28.51;21.66
67354;SHT30;54238;52.278;21.056;2023-04-24T14:59:29;28.10;21.85
67354;SHT30;54238;52.278;21.056;2023-04-24T15:01:57;27.76;22.19
67354;SHT30;54238;52.278;21.056;2023-04-24T15:04:29;27.42;22.35
67354;SHT30;54238;52.278;21.056;2023-04-24T15:07:00;27.42;22.43
67354;SHT30;54238;52.278;21.056;2023-04-24T15:09:29;27.34;22.47
67354;SHT30;54238;52.278;21.056;2023-04-24T15:12:01;27.00;22.52
67354;SHT30;54238;52.278;21.056;2023-04-24T15:14:31;26.65;22.83
67354;SHT30;54238;52.278;21.056;2023-04-24T15:17:00;26.29;23.19
67354;SHT30;54238;52.278;21.056;2023-04-24T15:19:27;26.01;23.45
67354;SHT30;54238;52.278;21.056;2023-04-24T15:21:54;25.80;23.72
67354;SHT30;54238;52.278;21.056;2023-04-24T15:24:24;25.62;23.88
67354;SHT30;54238;52.278;21.056;2023-04-24T15:26:56;25.41;23.87
67354;SHT30;54238;52.278;21.056;2023-04-24T15:29:24;25.24;24.26
67354;SHT30;54238;52.278;21.056;2023-04-24T15:31:54;25.11;24.35
67354;SHT30;54238;52.278;21.056;2023-04-24T15:34:23;24.98;24.46
67354;SHT30;54238;52.278;21.056;2023-04-24T15:36:53;24.99;24.78
67354;SHT30;54238;52.278;21.056;2023-04-24T15:39:24;24.94;24.89
67354;SHT30;54238;52.278;21.056;2023-04-24T15:41:53;24.87;25.13
67354;SHT30;54238;52.278;21.056;2023-04-24T15:44:25;24.79;25.40
67354;SHT30;54238;52.278;21.056;2023-04-24T15:46:58;24.72;25.44
67354;SHT30;54238;52.278;21.056;2023-04-24T15:49:31;24.73;25.28
67354;SHT30;54238;52.278;21.056;2023-04-24T15:51:57;24.85;25.26
67354;SHT30;54238;52.278;21.056;2023-04-24T15:54:27;24.86;25.44
67354;SHT30;54238;52.278;21.056;2023-04-24T15:56:54;24.92;25.94